createdAt,value
2023-01-15T00:00:59.678Z,30.77
2023-01-15T00:04:04.957Z,26.85
2023-01-15T00:07:07.665Z,27.10
2023-01-15T00:10:11.273Z,26.65
2023-01-15T00:13:14.703Z,25.00
2023-01-15T00:16:21.287Z,27.80
2023-01-15T00:19:23.927Z,27.48
2023-01-15T00:22:26.889Z,28.60
2023-01-15T00:25:48.029Z,25.55
2023-01-15T00:28:50.719Z,28.65
2023-01-15T00:32:03.317Z,26.75
2023-01-15T00:35:06.903Z,25.55
2023-01-15T00:38:09.537Z,21.50
2023-01-15T00:41:13.709Z,20.98
2023-01-15T00:44:16.598Z,18.02
2023-01-15T00:47:19.607Z,22.70
2023-01-15T00:50:25.150Z,22.42
2023-01-15T00:53:28.053Z,24.70
2023-01-15T00:56:30.896Z,27.17
2023-01-15T00:59:33.670Z,19.50
2023-01-15T01:02:36.388Z,25.27
2023-01-15T01:05:39.168Z,38.42
2023-01-15T01:08:41.865Z,31.80
2023-01-15T01:11:44.945Z,32.45
2023-01-15T01:14:48.046Z,28.67
2023-01-15T01:17:51.894Z,32.43
2023-01-15T01:20:55.006Z,34.75
2023-01-15T01:24:01.443Z,32.58
2023-01-15T01:27:04.377Z,35.47
2023-01-15T01:30:07.923Z,32.47
2023-01-15T01:33:11.373Z,33.38
2023-01-15T01:36:14.073Z,34.65
2023-01-15T01:39:19.842Z,35.73
2023-01-15T01:42:23.011Z,34.92
2023-01-15T01:45:29.476Z,31.92
2023-01-15T01:48:34.608Z,33.83
2023-01-15T01:51:51.103Z,31.58
2023-01-15T01:54:54.395Z,33.70
2023-01-15T01:58:00.695Z,33.92
2023-01-15T02:01:06.041Z,37.45
2023-01-15T02:04:10.853Z,36.75
2023-01-15T02:07:15.480Z,34.42
2023-01-15T02:10:18.778Z,35.23
2023-01-15T02:13:36.209Z,33.05
2023-01-15T02:16:56.927Z,41.20
2023-01-15T02:20:12.729Z,32.33
2023-01-15T02:23:32.224Z,40.15
2023-01-15T02:27:07.355Z,37.83
2023-01-15T02:30:21.173Z,36.63
2023-01-15T02:34:01.649Z,40.47
2023-01-15T02:37:09.420Z,31.60
2023-01-15T02:40:14.347Z,31.00
2023-01-15T02:43:20.435Z,32.03
2023-01-15T02:46:29.162Z,37.42
2023-01-15T02:49:33.384Z,34.38
2023-01-15T02:52:47.359Z,32.07
2023-01-15T02:55:57.665Z,31.58
2023-01-15T02:59:10.925Z,26.70
2023-01-15T03:02:21.056Z,33.20
2023-01-15T03:05:31.251Z,29.05
2023-01-15T03:08:34.428Z,34.20
2023-01-15T03:11:44.612Z,33.88
2023-01-15T03:15:08.590Z,29.30
2023-01-15T03:18:15.561Z,27.38
2023-01-15T03:21:27.608Z,36.10
2023-01-15T03:24:42.595Z,29.33
2023-01-15T03:27:45.396Z,31.92
2023-01-15T03:30:52.122Z,31.00
2023-01-15T03:33:55.550Z,29.33
2023-01-15T03:36:59.740Z,27.42
2023-01-15T03:40:04.519Z,30.33
2023-01-15T03:43:34.066Z,29.35
2023-01-15T03:47:07.573Z,33.20
2023-01-15T03:50:27.744Z,35.08
2023-01-15T03:53:39.327Z,31.60
2023-01-15T03:56:58.470Z,36.53
2023-01-15T04:00:10.083Z,32.60
2023-01-15T04:03:22.720Z,17.75
2023-01-15T04:06:29.264Z,28.92
2023-01-15T04:09:38.091Z,27.80
2023-01-15T04:12:42.235Z,35.67
2023-01-15T04:15:46.707Z,32.53
2023-01-15T04:18:50.217Z,21.23
2023-01-15T04:21:54.980Z,23.75
2023-01-15T04:24:57.446Z,20.98
2023-01-15T04:28:00.685Z,27.70
2023-01-15T04:31:04.354Z,28.83
2023-01-15T04:34:07.475Z,28.92
2023-01-15T04:37:10.134Z,38.65
2023-01-15T04:40:33.501Z,23.20
2023-01-15T04:43:55.013Z,32.35
2023-01-15T04:47:00.091Z,34.13
2023-01-15T04:50:02.832Z,27.50
2023-01-15T04:53:06.653Z,35.53
2023-01-15T04:56:09.203Z,27.70
2023-01-15T04:59:12.551Z,28.83
2023-01-15T05:02:15.775Z,33.53
2023-01-15T05:05:19.205Z,32.38
2023-01-15T05:08:22.106Z,31.95
2023-01-15T05:11:24.899Z,30.23
2023-01-15T05:14:27.793Z,31.85
2023-01-15T05:17:33.015Z,30.05
2023-01-15T05:20:38.507Z,21.37
2023-01-15T05:23:41.440Z,31.42
2023-01-15T05:26:44.360Z,22.50
2023-01-15T05:29:48.155Z,24.00
2023-01-15T05:32:51.829Z,28.92
2023-01-15T05:35:54.739Z,24.98
2023-01-15T05:39:01.944Z,26.60
2023-01-15T05:42:05.106Z,22.88
2023-01-15T05:45:08.271Z,27.33
2023-01-15T05:48:11.825Z,19.70
2023-01-15T05:51:15.244Z,20.87
2023-01-15T05:54:20.894Z,24.75
2023-01-15T05:57:23.367Z,30.70
2023-01-15T06:00:30.411Z,25.90
2023-01-15T06:03:33.062Z,25.67
2023-01-15T06:06:36.730Z,25.77
2023-01-15T06:09:39.414Z,23.17
2023-01-15T06:12:42.423Z,30.77
2023-01-15T06:15:45.215Z,22.42
2023-01-15T06:18:48.364Z,23.50
2023-01-15T06:21:51.916Z,22.53
2023-01-15T06:24:55.059Z,22.58
2023-01-15T06:27:58.491Z,24.50
2023-01-15T06:31:06.318Z,24.53
2023-01-15T06:34:08.848Z,29.58
2023-01-15T06:37:12.229Z,38.05
2023-01-15T06:40:29.179Z,26.38
2023-01-15T06:43:50.479Z,32.22
2023-01-15T06:47:11.677Z,27.67
2023-01-15T06:50:16.147Z,30.05
2023-01-15T06:53:19.605Z,26.43
2023-01-15T06:56:22.521Z,26.10
2023-01-15T06:59:25.090Z,22.08
2023-01-15T07:02:28.292Z,22.83
2023-01-15T07:05:30.970Z,24.02
2023-01-15T07:08:34.630Z,34.25
2023-01-15T07:11:49.468Z,20.70
2023-01-15T07:14:52.790Z,29.08
2023-01-15T07:17:56.302Z,27.08
2023-01-15T07:20:59.811Z,26.38
2023-01-15T07:24:02.565Z,28.03
2023-01-15T07:27:06.376Z,15.70
2023-01-15T07:30:09.537Z,17.13
2023-01-15T07:33:14.962Z,18.73
2023-01-15T07:36:17.480Z,30.88
2023-01-15T07:39:20.864Z,32.50
2023-01-15T07:42:42.304Z,39.53
2023-01-15T07:46:07.933Z,37.42
2023-01-15T07:49:30.192Z,30.15
2023-01-15T07:52:33.553Z,33.30
2023-01-15T07:55:36.466Z,18.37
2023-01-15T07:58:39.203Z,22.98
2023-01-15T08:01:42.063Z,36.67
2023-01-15T08:04:45.611Z,27.23
2023-01-15T08:07:49.270Z,22.25
2023-01-15T08:11:12.087Z,24.73
2023-01-15T08:14:33.713Z,46.78
2023-01-15T08:17:37.834Z,35.47
2023-01-15T08:20:47.424Z,27.92
2023-01-15T08:23:51.437Z,29.45
2023-01-15T08:26:54.427Z,31.23
2023-01-15T08:29:57.653Z,37.03
2023-01-15T08:33:03.098Z,41.33
2023-01-15T08:36:06.387Z,47.47
2023-01-15T08:39:08.891Z,48.95
2023-01-15T08:42:12.058Z,41.58
2023-01-15T08:45:15.040Z,28.95
2023-01-15T08:48:17.699Z,45.45
2023-01-15T08:51:20.961Z,48.58
2023-01-15T08:54:26.979Z,28.05
2023-01-15T08:57:49.730Z,41.87
2023-01-15T09:01:16.262Z,40.25
2023-01-15T09:04:20.890Z,53.15
2023-01-15T09:07:23.948Z,44.83
2023-01-15T09:10:26.584Z,40.63
2023-01-15T09:13:30.484Z,23.67
2023-01-15T09:16:33.751Z,23.80
2023-01-15T09:19:37.318Z,39.78
2023-01-15T09:22:40.420Z,21.30
2023-01-15T09:26:01.567Z,26.33
2023-01-15T09:29:05.635Z,35.73
2023-01-15T09:32:10.214Z,40.33
2023-01-15T09:35:12.888Z,36.17
2023-01-15T09:38:17.365Z,36.60
2023-01-15T09:41:39.856Z,35.30
2023-01-15T09:45:01.690Z,33.72
2023-01-15T09:48:18.230Z,25.50
2023-01-15T09:51:47.867Z,64.18
2023-01-15T09:54:53.223Z,39.88
2023-01-15T09:57:59.468Z,29.20
2023-01-15T10:01:03.388Z,21.63
2023-01-15T10:04:38.181Z,29.25
2023-01-15T10:07:49.617Z,29.45
2023-01-15T10:10:57.891Z,29.83
2023-01-15T10:14:11.159Z,32.97
2023-01-15T10:17:22.779Z,20.25
2023-01-15T10:20:40.340Z,15.32
2023-01-15T10:23:56.288Z,21.95
2023-01-15T10:27:00.049Z,26.35
2023-01-15T10:30:18.340Z,21.30
2023-01-15T10:33:26.836Z,16.27
2023-01-15T10:36:37.111Z,18.50
2023-01-15T10:40:03.365Z,18.23
2023-01-15T10:43:18.457Z,18.77
2023-01-15T10:46:27.280Z,12.85
2023-01-15T10:49:30.964Z,21.17
2023-01-15T10:52:36.999Z,14.02
2023-01-15T10:55:50.356Z,13.00
2023-01-15T10:59:05.197Z,15.15
2023-01-15T11:02:29.828Z,21.15
2023-01-15T11:05:33.615Z,13.87
2023-01-15T11:09:07.327Z,17.58
2023-01-15T11:12:20.379Z,10.25
2023-01-15T11:15:44.368Z,13.97
2023-01-15T11:19:05.836Z,14.35
2023-01-15T11:22:14.211Z,11.80
2023-01-15T11:25:29.874Z,17.00
2023-01-15T11:28:36.628Z,29.25
2023-01-15T11:31:40.832Z,26.20
2023-01-15T11:34:53.632Z,20.23
2023-01-15T11:38:07.285Z,24.80
2023-01-15T11:41:54.197Z,22.42
2023-01-15T11:45:16.512Z,25.45
2023-01-15T11:48:41.233Z,21.20
2023-01-15T11:51:48.845Z,20.73
2023-01-15T11:54:54.519Z,15.20
2023-01-15T11:57:58.482Z,18.58
2023-01-15T12:01:01.787Z,19.52
2023-01-15T12:04:08.217Z,19.58
2023-01-15T12:07:14.246Z,23.90
2023-01-15T12:10:53.601Z,18.10
2023-01-15T12:14:31.685Z,27.80
2023-01-15T12:18:17.012Z,14.38
2023-01-15T12:21:45.165Z,22.43
2023-01-15T12:25:15.142Z,19.13
2023-01-15T12:28:32.469Z,20.92
2023-01-15T12:31:43.927Z,33.92
2023-01-15T12:34:56.615Z,22.83
2023-01-15T12:38:13.195Z,23.75
2023-01-15T12:41:26.372Z,22.45
2023-01-15T12:44:47.706Z,16.53
2023-01-15T12:47:58.698Z,18.58
2023-01-15T12:51:04.600Z,19.60
2023-01-15T12:54:15.413Z,23.63
2023-01-15T12:57:42.974Z,29.27
2023-01-15T13:00:46.278Z,36.60
2023-01-15T13:04:04.404Z,25.27
2023-01-15T13:07:33.963Z,14.75
2023-01-15T13:10:40.762Z,25.30
2023-01-15T13:13:58.397Z,25.23
2023-01-15T13:17:08.913Z,16.57
2023-01-15T13:20:43.868Z,22.13
2023-01-15T13:23:48.842Z,16.83
2023-01-15T13:27:09.948Z,20.97
2023-01-15T13:30:43.429Z,20.35
2023-01-15T13:33:56.252Z,13.45
2023-01-15T13:37:05.480Z,18.63
2023-01-15T13:40:23.853Z,14.80
2023-01-15T13:43:42.887Z,19.08
2023-01-15T13:46:48.681Z,24.75
2023-01-15T13:49:56.560Z,21.27
2023-01-15T13:53:25.755Z,15.85
2023-01-15T13:56:32.289Z,17.13
2023-01-15T13:59:41.221Z,22.03
2023-01-15T14:02:52.672Z,18.52
2023-01-15T14:05:58.432Z,19.90
2023-01-15T14:09:00.855Z,24.63
2023-01-15T14:12:27.868Z,21.10
2023-01-15T14:15:57.010Z,21.50
2023-01-15T14:19:21.952Z,24.25
2023-01-15T14:22:44.023Z,27.83
2023-01-15T14:25:55.027Z,22.15
2023-01-15T14:29:26.157Z,32.58
2023-01-15T14:32:57.219Z,25.27
2023-01-15T14:36:16.473Z,23.45
2023-01-15T14:39:25.181Z,23.02
2023-01-15T14:42:56.681Z,26.95
2023-01-15T14:46:11.500Z,30.50
2023-01-15T14:49:29.339Z,30.85
2023-01-15T14:52:32.792Z,27.45
2023-01-15T14:55:41.102Z,23.60
2023-01-15T14:59:36.076Z,30.88
2023-01-15T15:02:43.866Z,24.30
2023-01-15T15:05:47.744Z,25.80
2023-01-15T15:08:53.028Z,26.85
2023-01-15T15:12:20.942Z,22.17
2023-01-15T15:15:26.807Z,31.10
2023-01-15T15:18:42.556Z,40.35
2023-01-15T15:21:47.583Z,30.15
2023-01-15T15:24:54.288Z,26.25
2023-01-15T15:28:05.117Z,33.23
2023-01-15T15:31:10.566Z,33.22
2023-01-15T15:34:23.253Z,38.45
2023-01-15T15:37:28.451Z,38.30
2023-01-15T15:40:36.458Z,34.70
2023-01-15T15:44:16.275Z,37.47
2023-01-15T15:47:43.177Z,46.10
2023-01-15T15:50:48.176Z,30.67
2023-01-15T15:53:50.875Z,31.10
2023-01-15T15:56:57.562Z,37.40
2023-01-15T16:00:01.280Z,39.83
2023-01-15T16:03:18.290Z,40.97
2023-01-15T16:06:27.109Z,43.70
2023-01-15T16:09:30.319Z,66.97
2023-01-15T16:12:40.805Z,53.20
2023-01-15T16:15:44.264Z,49.40
2023-01-15T16:18:56.051Z,47.65
2023-01-15T16:21:58.823Z,56.10
2023-01-15T16:25:02.470Z,48.15
2023-01-15T16:28:05.877Z,48.78
2023-01-15T16:31:10.118Z,58.77
2023-01-15T16:34:22.537Z,55.92
2023-01-15T16:37:30.650Z,50.60
2023-01-15T16:40:37.419Z,48.47
2023-01-15T16:44:01.498Z,50.72
2023-01-15T16:47:05.667Z,41.47
2023-01-15T16:50:23.702Z,45.10
2023-01-15T16:53:29.729Z,41.47
2023-01-15T16:56:36.109Z,42.03
2023-01-15T16:59:44.849Z,41.30
2023-01-15T17:02:47.751Z,40.83
2023-01-15T17:05:54.479Z,45.40
2023-01-15T17:08:58.947Z,37.22
2023-01-15T17:12:35.659Z,41.07
2023-01-15T17:15:40.730Z,38.70
2023-01-15T17:18:44.630Z,47.33
2023-01-15T17:21:47.639Z,41.70
2023-01-15T17:24:52.772Z,44.60
2023-01-15T17:27:56.053Z,49.70
2023-01-15T17:31:01.669Z,48.63
2023-01-15T17:34:04.587Z,50.17
2023-01-15T17:37:07.768Z,44.13
2023-01-15T17:40:11.436Z,41.05
2023-01-15T17:43:16.332Z,46.30
2023-01-15T17:46:19.257Z,47.38
2023-01-15T17:49:22.979Z,50.08
2023-01-15T17:52:25.757Z,56.63
2023-01-15T17:55:47.259Z,56.42
2023-01-15T17:59:11.055Z,48.80
2023-01-15T18:02:34.676Z,45.78
2023-01-15T18:05:38.356Z,43.80
2023-01-15T18:08:44.400Z,39.45
2023-01-15T18:11:47.412Z,33.03
2023-01-15T18:14:50.480Z,39.50
2023-01-15T18:17:53.313Z,38.55
2023-01-15T18:20:56.265Z,40.88
2023-01-15T18:23:59.952Z,37.17
2023-01-15T18:27:03.004Z,39.00
2023-01-15T18:30:06.550Z,42.15
2023-01-15T18:33:09.706Z,49.25
2023-01-15T18:36:14.120Z,52.07
2023-01-15T18:39:17.025Z,50.28
2023-01-15T18:42:38.074Z,37.92
2023-01-15T18:45:59.965Z,41.27
2023-01-15T18:49:02.678Z,32.97
2023-01-15T18:52:24.988Z,31.33
2023-01-15T18:55:28.134Z,32.78
2023-01-15T18:58:31.417Z,30.52
2023-01-15T19:01:34.418Z,40.25
2023-01-15T19:04:38.478Z,25.05
2023-01-15T19:07:45.464Z,32.30
2023-01-15T19:10:48.407Z,29.20
2023-01-15T19:14:11.983Z,28.85
2023-01-15T19:17:40.127Z,32.73
2023-01-15T19:20:43.165Z,30.05
2023-01-15T19:23:47.440Z,21.48
2023-01-15T19:26:50.807Z,25.55
2023-01-15T19:29:53.644Z,27.88
2023-01-15T19:32:56.736Z,26.15
2023-01-15T19:35:59.934Z,27.33
2023-01-15T19:39:03.253Z,26.07
2023-01-15T19:42:24.897Z,18.13
2023-01-15T19:45:46.421Z,24.02
2023-01-15T19:49:07.750Z,21.47
2023-01-15T19:52:29.056Z,20.30
2023-01-15T19:55:33.402Z,23.95
2023-01-15T19:58:37.184Z,22.52
2023-01-15T20:01:40.671Z,19.25
2023-01-15T20:04:45.719Z,30.25
2023-01-15T20:07:48.839Z,21.63
2023-01-15T20:10:51.740Z,22.57
2023-01-15T20:13:54.963Z,44.85
2023-01-15T20:16:57.348Z,45.85
2023-01-15T20:20:00.344Z,48.13
2023-01-15T20:23:03.008Z,40.08
2023-01-15T20:26:08.219Z,32.55
2023-01-15T20:29:11.237Z,37.60
2023-01-15T20:32:14.628Z,24.75
2023-01-15T20:35:23.641Z,30.38
2023-01-15T20:38:26.686Z,35.95
2023-01-15T20:41:48.048Z,27.07
2023-01-15T20:44:53.600Z,26.13
2023-01-15T20:48:11.643Z,31.30
2023-01-15T20:51:14.779Z,28.77
2023-01-15T20:54:17.798Z,42.58
2023-01-15T20:57:20.503Z,29.63
2023-01-15T21:00:24.064Z,27.35
2023-01-15T21:03:27.303Z,25.50
2023-01-15T21:06:30.051Z,22.05
2023-01-15T21:09:32.849Z,27.65
2023-01-15T21:12:36.397Z,31.80
2023-01-15T21:15:39.499Z,36.70
2023-01-15T21:18:45.050Z,33.67
2023-01-15T21:21:48.017Z,32.17
2023-01-15T21:24:51.601Z,33.53
2023-01-15T21:27:54.623Z,35.45
2023-01-15T21:30:57.963Z,31.95
2023-01-15T21:34:00.849Z,31.40
2023-01-15T21:37:03.330Z,35.00
2023-01-15T21:40:06.676Z,53.80
2023-01-15T21:43:48.071Z,43.40
2023-01-15T21:46:50.848Z,36.50
2023-01-15T21:49:53.506Z,39.58
2023-01-15T21:52:56.282Z,32.83
2023-01-15T21:55:58.745Z,34.85
2023-01-15T21:59:01.497Z,33.08
2023-01-15T22:02:05.022Z,41.10
2023-01-15T22:05:08.726Z,43.10
2023-01-15T22:08:11.552Z,38.25
2023-01-15T22:11:14.221Z,40.17
2023-01-15T22:14:17.909Z,33.83
2023-01-15T22:17:21.172Z,34.88
2023-01-15T22:20:23.766Z,34.80
2023-01-15T22:23:27.369Z,41.93
2023-01-15T22:26:30.838Z,41.80
2023-01-15T22:29:38.315Z,42.17
2023-01-15T22:32:40.871Z,39.22
2023-01-15T22:35:43.717Z,39.88
2023-01-15T22:38:47.187Z,35.08
2023-01-15T22:42:08.599Z,33.45
2023-01-15T22:45:11.353Z,36.90
2023-01-15T22:48:14.025Z,40.15
2023-01-15T22:51:16.764Z,37.95
2023-01-15T22:54:19.942Z,39.83
2023-01-15T22:57:23.488Z,38.03
2023-01-15T23:00:26.320Z,42.53
2023-01-15T23:03:29.114Z,33.80
2023-01-15T23:06:31.788Z,46.20
2023-01-15T23:09:35.228Z,37.88
2023-01-15T23:12:39.640Z,47.58
2023-01-15T23:15:42.497Z,43.13
2023-01-15T23:18:46.165Z,51.28
2023-01-15T23:21:48.553Z,39.75
2023-01-15T23:24:51.347Z,35.73
2023-01-15T23:27:53.768Z,40.30
2023-01-15T23:30:56.551Z,49.15
2023-01-15T23:33:59.510Z,41.95
2023-01-15T23:37:03.339Z,44.38
2023-01-15T23:40:07.164Z,36.17
2023-01-15T23:43:33.020Z,39.33
2023-01-15T23:46:35.892Z,42.33
2023-01-15T23:49:39.483Z,40.38
2023-01-15T23:52:41.884Z,44.80
2023-01-15T23:55:44.765Z,35.97
2023-01-15T23:58:47.704Z,43.70
